Terminal Aerodrome Forecast
Issued by NWS

Home | Current Version | Previous Version | Text Only | Print | Product List | Glossary On
Versions: 1 2 3 4 5 6 7 8 9 10 11 12 13 14
000
FTUS42 KMLB 250500
TAFSUA
TAF
KSUA 250529Z 2506/2606 31011KT P6SM FEW200
     FM251600 34006KT P6SM SCT250
     FM251800 03008KT P6SM SCT250
     FM252300 25003KT P6SM SCT100 BKN250=

USA.gov is the U.S. government's official web portal to all federal, state and local government web resources and services.